Terminal Aerodrome Forecast
Issued by NWS Charleston, WV

Home | Current Version | Previous Version | Text Only | Print | Product List | Glossary On
Versions: 1 2 3 4 5 6 7 8 9 10 11 12 13 14 15 16 17 18 19 20 21 22 23 24 25
671
FTUS41 KRLX 130048 AAA
TAFEKN
TAF AMD
KEKN 130048Z 1301/1324 28012KT 2SM -SN BKN015 OVC020
     FM130500 29015G23KT 1SM -SHSN BR OVC008
     FM130800 30017G26KT 3SM -SHSN BR BKN015
     FM131500 30011G20KT P6SM BKN020=

USA.gov is the U.S. government's official web portal to all federal, state and local government web resources and services.